createdAt,value
2023-08-24T00:01:07.303Z,22.95
2023-08-24T00:03:35.224Z,22.96
2023-08-24T00:06:03.340Z,23.03
2023-08-24T00:08:31.231Z,23.05
2023-08-24T00:10:59.154Z,23.11
2023-08-24T00:13:28.384Z,23.08
2023-08-24T00:15:56.797Z,23.04
2023-08-24T00:18:24.795Z,23.05
2023-08-24T00:20:53.081Z,22.95
2023-08-24T00:23:21.028Z,22.94
2023-08-24T00:25:49.040Z,22.92
2023-08-24T00:28:16.931Z,22.78
2023-08-24T00:30:46.766Z,22.78
2023-08-24T00:33:14.675Z,22.83
2023-08-24T00:35:42.637Z,22.91
2023-08-24T00:38:10.675Z,22.99
2023-08-24T00:40:40.081Z,23.05
2023-08-24T00:43:07.990Z,22.92
2023-08-24T00:45:36.887Z,22.64
2023-08-24T00:48:07.339Z,22.69
2023-08-24T00:50:35.666Z,22.71
2023-08-24T00:53:03.667Z,22.71
2023-08-24T00:55:31.632Z,22.67
2023-08-24T00:58:00.787Z,22.60
2023-08-24T01:00:28.808Z,22.52
2023-08-24T01:02:56.804Z,22.48
2023-08-24T01:05:26.200Z,22.32
2023-08-24T01:07:54.828Z,22.34
2023-08-24T01:10:23.175Z,22.25
2023-08-24T01:13:03.593Z,22.19
2023-08-24T01:15:39.584Z,22.12
2023-08-24T01:18:14.685Z,22.03
2023-08-24T01:20:45.187Z,21.97
2023-08-24T01:23:29.915Z,21.91
2023-08-24T01:26:06.410Z,21.73
2023-08-24T01:28:35.164Z,21.86
2023-08-24T01:31:03.487Z,21.81
2023-08-24T01:33:31.402Z,21.79
2023-08-24T01:35:59.432Z,21.79
2023-08-24T01:38:27.868Z,21.67
2023-08-24T01:41:01.491Z,21.68
2023-08-24T01:43:43.957Z,21.66
2023-08-24T01:46:15.995Z,21.55
2023-08-24T01:48:45.187Z,21.55
2023-08-24T01:51:13.933Z,21.62
2023-08-24T01:53:42.928Z,21.63
2023-08-24T01:56:12.222Z,21.68
2023-08-24T01:58:40.704Z,21.73
2023-08-24T02:01:09.969Z,21.69
2023-08-24T02:03:40.496Z,21.73
2023-08-24T02:06:09.264Z,21.71
2023-08-24T02:08:37.631Z,21.66
2023-08-24T02:11:05.604Z,21.58
2023-08-24T02:13:33.671Z,21.50
2023-08-24T02:16:06.663Z,21.41
2023-08-24T02:18:34.967Z,21.39
2023-08-24T02:21:08.870Z,21.38
2023-08-24T02:23:36.818Z,21.36
2023-08-24T02:26:05.052Z,21.37
2023-08-24T02:28:33.048Z,21.35
2023-08-24T02:31:03.231Z,21.27
2023-08-24T02:33:32.781Z,21.32
2023-08-24T02:36:00.732Z,21.28
2023-08-24T02:38:28.670Z,21.11
2023-08-24T02:41:03.697Z,21.13
2023-08-24T02:43:31.761Z,21.07
2023-08-24T02:46:04.584Z,20.93
2023-08-24T02:48:34.612Z,20.93
2023-08-24T02:51:04.795Z,20.81
2023-08-24T02:53:33.060Z,20.74
2023-08-24T02:56:01.676Z,20.61
2023-08-24T02:58:30.005Z,20.95
2023-08-24T03:00:58.509Z,21.02
2023-08-24T03:03:26.647Z,20.93
2023-08-24T03:06:00.533Z,20.99
2023-08-24T03:08:28.768Z,20.87
2023-08-24T03:10:56.706Z,20.78
2023-08-24T03:13:25.113Z,20.79
2023-08-24T03:15:53.405Z,20.69
2023-08-24T03:18:22.275Z,20.63
2023-08-24T03:20:51.311Z,20.57
2023-08-24T03:23:20.675Z,20.50
2023-08-24T03:25:48.629Z,20.56
2023-08-24T03:28:16.664Z,20.50
2023-08-24T03:30:49.319Z,20.46
2023-08-24T03:33:17.761Z,20.51
2023-08-24T03:35:46.077Z,20.44
2023-08-24T03:38:14.150Z,20.47
2023-08-24T03:40:43.572Z,20.57
2023-08-24T03:43:11.532Z,20.57
2023-08-24T03:45:39.643Z,20.56
2023-08-24T03:48:08.326Z,20.50
2023-08-24T03:50:36.296Z,20.53
2023-08-24T03:53:05.512Z,20.57
2023-08-24T03:55:34.139Z,20.55
2023-08-24T03:58:03.658Z,20.53
2023-08-24T04:00:32.226Z,20.52
2023-08-24T04:03:00.339Z,20.52
2023-08-24T04:05:30.010Z,20.50
2023-08-24T04:07:57.959Z,20.42
2023-08-24T04:10:25.900Z,20.47
2023-08-24T04:12:53.909Z,20.54
2023-08-24T04:15:23.614Z,20.49
2023-08-24T04:17:51.923Z,20.44
2023-08-24T04:20:20.273Z,20.49
2023-08-24T04:22:48.177Z,20.55
2023-08-24T04:25:16.099Z,20.64
2023-08-24T04:27:44.077Z,20.70
2023-08-24T04:30:13.474Z,20.83
2023-08-24T04:32:42.940Z,20.80
2023-08-24T04:35:11.471Z,20.83
2023-08-24T04:37:39.712Z,20.79
2023-08-24T04:40:09.418Z,20.76
2023-08-24T04:42:37.326Z,20.78
2023-08-24T04:45:05.714Z,20.85
2023-08-24T04:47:33.792Z,20.77
2023-08-24T04:50:05.161Z,20.76
2023-08-24T04:52:33.040Z,20.75
2023-08-24T04:55:01.142Z,20.67
2023-08-24T04:57:29.036Z,20.71
2023-08-24T04:59:56.995Z,20.80
2023-08-24T05:02:25.112Z,20.84
2023-08-24T05:04:53.193Z,20.87
2023-08-24T05:07:22.586Z,20.85
2023-08-24T05:09:50.613Z,20.62
2023-08-24T05:12:18.495Z,20.79
2023-08-24T05:14:46.444Z,21.03
2023-08-24T05:17:14.328Z,21.18
2023-08-24T05:19:42.218Z,21.26
2023-08-24T05:22:10.264Z,21.31
2023-08-24T05:24:39.572Z,21.44
2023-08-24T05:27:07.683Z,21.61
2023-08-24T05:29:35.649Z,21.67
2023-08-24T05:32:03.998Z,21.68
2023-08-24T05:34:31.928Z,21.67
2023-08-24T05:36:59.964Z,21.79
2023-08-24T05:39:28.033Z,21.81
2023-08-24T05:41:57.363Z,21.77
2023-08-24T05:44:25.257Z,21.79
2023-08-24T05:46:53.123Z,21.78
2023-08-24T05:49:21.082Z,21.83
2023-08-24T05:51:49.056Z,21.96
2023-08-24T05:54:19.681Z,22.03
2023-08-24T05:56:47.781Z,22.05
2023-08-24T05:59:17.430Z,22.05
2023-08-24T06:01:45.436Z,22.21
2023-08-24T06:04:13.890Z,22.32
2023-08-24T06:06:41.923Z,22.20
2023-08-24T06:09:11.313Z,22.50
2023-08-24T06:11:39.332Z,22.66
2023-08-24T06:14:07.391Z,22.77
2023-08-24T06:16:36.865Z,22.88
2023-08-24T06:19:05.694Z,22.85
2023-08-24T06:21:33.682Z,22.91
2023-08-24T06:24:02.323Z,23.02
2023-08-24T06:26:30.359Z,23.07
2023-08-24T06:28:58.273Z,23.11
2023-08-24T06:31:26.558Z,23.07
2023-08-24T06:33:55.855Z,23.12
2023-08-24T06:36:23.805Z,23.30
2023-08-24T06:38:51.840Z,23.39
2023-08-24T06:41:19.773Z,23.40
2023-08-24T06:43:47.682Z,23.58
2023-08-24T06:46:16.498Z,23.71
2023-08-24T06:48:45.583Z,23.92
2023-08-24T06:51:15.106Z,24.04
2023-08-24T06:53:43.701Z,24.17
2023-08-24T06:56:11.757Z,24.21
2023-08-24T06:58:39.720Z,24.33
2023-08-24T07:01:08.515Z,24.46
2023-08-24T07:03:36.466Z,24.49
2023-08-24T07:06:05.561Z,24.53
2023-08-24T07:08:37.845Z,24.57
2023-08-24T07:11:07.040Z,24.61
2023-08-24T07:13:35.740Z,24.67
2023-08-24T07:16:05.210Z,24.64
2023-08-24T07:18:34.742Z,24.73
2023-08-24T07:21:02.705Z,24.84
2023-08-24T07:23:30.684Z,24.91
2023-08-24T07:26:00.085Z,25.00
2023-08-24T07:28:28.388Z,25.03
2023-08-24T07:30:57.392Z,25.08
2023-08-24T07:33:27.594Z,25.14
2023-08-24T07:35:55.544Z,25.29
2023-08-24T07:38:23.472Z,25.25
2023-08-24T07:40:51.813Z,25.42
2023-08-24T07:43:21.182Z,25.57
2023-08-24T07:45:49.210Z,25.69
2023-08-24T07:48:17.415Z,25.78
2023-08-24T07:50:45.459Z,25.90
2023-08-24T07:53:13.357Z,26.03
2023-08-24T07:55:41.699Z,26.17
2023-08-24T07:58:09.604Z,26.31
2023-08-24T08:00:39.122Z,26.42
2023-08-24T08:03:07.262Z,26.64
2023-08-24T08:05:35.330Z,26.79
2023-08-24T08:08:03.535Z,26.84
2023-08-24T08:10:31.531Z,26.98
2023-08-24T08:12:59.432Z,27.17
2023-08-24T08:15:27.388Z,27.34
2023-08-24T08:17:56.963Z,27.44
2023-08-24T08:20:25.193Z,27.42
2023-08-24T08:22:53.542Z,27.36
2023-08-24T08:25:23.317Z,27.38
2023-08-24T08:27:52.131Z,27.57
2023-08-24T08:30:21.441Z,27.54
2023-08-24T08:32:50.127Z,27.50
2023-08-24T08:35:19.592Z,27.80
2023-08-24T08:37:50.900Z,27.87
2023-08-24T08:40:20.219Z,28.03
2023-08-24T08:42:48.184Z,28.19
2023-08-24T08:45:17.063Z,28.34
2023-08-24T08:47:45.005Z,28.45
2023-08-24T08:50:15.111Z,28.68
2023-08-24T08:52:44.506Z,28.72
2023-08-24T08:55:17.848Z,28.87
2023-08-24T08:57:46.324Z,29.08
2023-08-24T09:00:15.423Z,29.14
2023-08-24T09:02:46.334Z,29.22
2023-08-24T09:05:14.892Z,29.25
2023-08-24T09:07:44.803Z,29.32
2023-08-24T09:10:12.780Z,29.54
2023-08-24T09:12:40.758Z,29.65
2023-08-24T09:15:09.657Z,29.71
2023-08-24T09:17:37.673Z,29.84
2023-08-24T09:20:10.653Z,29.90
2023-08-24T09:22:40.844Z,29.99
2023-08-24T09:25:12.097Z,30.07
2023-08-24T09:27:40.336Z,30.14
2023-08-24T09:30:09.807Z,30.32
2023-08-24T09:32:37.915Z,30.34
2023-08-24T09:35:07.218Z,30.35
2023-08-24T09:37:35.999Z,30.43
2023-08-24T09:40:09.417Z,30.64
2023-08-24T09:42:43.583Z,30.84
2023-08-24T09:45:16.014Z,30.94
2023-08-24T09:47:49.180Z,31.13
2023-08-24T09:50:17.211Z,31.28
2023-08-24T09:52:45.502Z,31.23
2023-08-24T09:55:15.698Z,31.49
2023-08-24T09:57:46.030Z,31.53
2023-08-24T10:00:16.821Z,31.55
2023-08-24T10:02:52.722Z,31.60
2023-08-24T10:07:55.971Z,31.66
2023-08-24T10:10:25.988Z,31.87
2023-08-24T10:13:00.446Z,31.87
2023-08-24T10:15:29.208Z,32.03
2023-08-24T10:17:59.686Z,32.26
2023-08-24T10:20:28.580Z,32.39
2023-08-24T10:22:58.219Z,32.58
2023-08-24T10:25:26.837Z,32.69
2023-08-24T10:27:57.089Z,32.95
2023-08-24T10:30:25.850Z,33.11
2023-08-24T10:32:57.482Z,33.18
2023-08-24T10:35:28.037Z,33.41
2023-08-24T10:37:55.975Z,33.43
2023-08-24T10:40:34.222Z,33.52
2023-08-24T10:43:06.938Z,33.62
2023-08-24T10:45:57.382Z,33.40
2023-08-24T10:48:26.370Z,33.16
2023-08-24T10:51:21.302Z,32.68
2023-08-24T10:53:53.832Z,32.53
2023-08-24T10:56:22.965Z,32.49
2023-08-24T10:59:14.152Z,32.31
2023-08-24T11:01:42.808Z,31.86
2023-08-24T11:04:10.975Z,31.13
2023-08-24T11:06:54.267Z,30.47
2023-08-24T11:09:22.642Z,30.32
2023-08-24T11:12:02.759Z,30.32
2023-08-24T11:14:33.815Z,30.43
2023-08-24T11:17:03.635Z,30.33
2023-08-24T11:19:32.475Z,30.62
2023-08-24T11:22:01.338Z,30.76
2023-08-24T11:24:29.891Z,30.82
2023-08-24T11:27:03.464Z,30.85
2023-08-24T11:29:32.804Z,30.71
2023-08-24T11:32:01.540Z,30.72
2023-08-24T11:34:29.671Z,30.63
2023-08-24T11:36:59.407Z,30.46
2023-08-24T11:39:32.839Z,30.32
2023-08-24T11:42:02.645Z,30.08
2023-08-24T11:44:32.404Z,29.72
2023-08-24T11:47:00.990Z,29.68
2023-08-24T11:49:29.423Z,29.57
2023-08-24T11:51:59.437Z,29.57
2023-08-24T11:54:27.705Z,29.53
2023-08-24T11:56:59.232Z,29.60
2023-08-24T11:59:29.709Z,29.52
2023-08-24T12:02:01.935Z,29.58
2023-08-24T12:04:39.544Z,29.52
2023-08-24T12:07:11.776Z,29.46
2023-08-24T12:09:43.995Z,29.39
2023-08-24T12:12:15.585Z,29.25
2023-08-24T12:14:43.604Z,29.20
2023-08-24T12:17:13.523Z,29.06
2023-08-24T12:19:45.259Z,29.08
2023-08-24T12:22:15.706Z,29.00
2023-08-24T12:24:46.570Z,28.93
2023-08-24T12:27:23.132Z,28.86
2023-08-24T12:29:51.394Z,28.72
2023-08-24T12:32:24.732Z,28.87
2023-08-24T12:34:53.295Z,28.87
2023-08-24T12:37:21.201Z,28.83
2023-08-24T12:39:49.923Z,28.72
2023-08-24T12:42:17.863Z,28.92
2023-08-24T12:44:45.791Z,29.02
2023-08-24T12:47:13.721Z,29.13
2023-08-24T12:49:43.075Z,29.29
2023-08-24T12:52:11.023Z,29.64
2023-08-24T12:54:38.948Z,29.91
2023-08-24T12:57:07.451Z,30.18
2023-08-24T12:59:35.350Z,30.41
2023-08-24T13:04:49.838Z,30.21
2023-08-24T13:07:17.955Z,30.07
2023-08-24T13:09:46.149Z,29.93
2023-08-24T13:12:14.092Z,29.77
2023-08-24T13:14:42.100Z,29.59
2023-08-24T13:17:10.013Z,29.30
2023-08-24T13:19:39.282Z,29.17
2023-08-24T13:22:09.100Z,29.11
2023-08-24T13:24:37.036Z,29.26
2023-08-24T13:27:05.069Z,29.21
2023-08-24T13:29:36.298Z,29.49
2023-08-24T13:32:06.504Z,29.54
2023-08-24T13:34:34.529Z,29.72
2023-08-24T13:37:02.549Z,29.90
2023-08-24T13:39:31.941Z,30.13
2023-08-24T13:42:00.307Z,30.33
2023-08-24T13:44:28.366Z,30.35
2023-08-24T13:46:56.364Z,30.31
2023-08-24T13:49:39.348Z,30.51
2023-08-24T13:52:09.071Z,30.83
2023-08-24T13:54:38.437Z,31.07
2023-08-24T13:57:06.490Z,31.22
2023-08-24T13:59:34.764Z,31.30
2023-08-24T14:02:02.727Z,31.13
2023-08-24T14:04:30.714Z,31.02
2023-08-24T14:06:58.673Z,30.88
2023-08-24T14:09:26.788Z,30.86
2023-08-24T14:11:56.196Z,30.68
2023-08-24T14:14:24.161Z,30.93
2023-08-24T14:16:57.056Z,30.66
2023-08-24T14:19:25.604Z,30.25
2023-08-24T14:21:53.523Z,30.40
2023-08-24T14:24:21.905Z,30.40
2023-08-24T14:26:50.721Z,30.43
2023-08-24T14:29:20.093Z,30.48
2023-08-24T14:31:47.998Z,30.70
2023-08-24T14:34:15.945Z,30.93
2023-08-24T14:36:43.882Z,31.00
2023-08-24T14:39:11.798Z,30.91
2023-08-24T14:41:39.719Z,30.86
2023-08-24T14:44:08.067Z,30.76
2023-08-24T14:46:37.754Z,30.94
2023-08-24T14:49:05.770Z,30.89
2023-08-24T14:51:33.761Z,30.62
2023-08-24T14:54:01.926Z,30.87
2023-08-24T14:56:29.866Z,30.92
2023-08-24T14:58:58.055Z,31.29
2023-08-24T15:01:26.100Z,31.26
2023-08-24T15:03:55.465Z,31.28
2023-08-24T15:06:23.424Z,31.12
2023-08-24T15:08:51.308Z,31.26
2023-08-24T15:11:20.683Z,31.51
2023-08-24T15:13:49.455Z,31.73
2023-08-24T15:16:17.768Z,31.92
2023-08-24T15:18:45.680Z,31.82
2023-08-24T15:21:16.039Z,31.59
2023-08-24T15:23:44.550Z,31.57
2023-08-24T15:26:12.583Z,31.50
2023-08-24T15:29:10.825Z,31.45
2023-08-24T15:31:39.139Z,31.37
2023-08-24T15:34:07.068Z,31.12
2023-08-24T15:36:36.588Z,30.85
2023-08-24T15:39:05.569Z,30.73
2023-08-24T15:41:33.530Z,30.58
2023-08-24T15:44:01.501Z,30.20
2023-08-24T15:46:29.523Z,30.05
2023-08-24T15:48:57.910Z,29.92
2023-08-24T15:51:25.865Z,29.78
2023-08-24T15:53:55.314Z,29.70
2023-08-24T15:56:23.292Z,29.57
2023-08-24T15:58:51.264Z,29.39
2023-08-24T16:01:19.460Z,29.13
2023-08-24T16:03:47.596Z,29.26
2023-08-24T16:06:15.546Z,29.01
2023-08-24T16:08:43.509Z,28.99
2023-08-24T16:11:14.453Z,28.82
2023-08-24T16:13:42.418Z,28.78
2023-08-24T16:16:10.432Z,28.78
2023-08-24T16:18:38.359Z,28.89
2023-08-24T16:21:06.271Z,28.96
2023-08-24T16:23:34.369Z,28.89
2023-08-24T16:26:02.306Z,28.78
2023-08-24T16:28:31.648Z,28.61
2023-08-24T16:30:59.756Z,28.45
2023-08-24T16:33:27.984Z,28.39
2023-08-24T16:35:55.900Z,28.29
2023-08-24T16:38:23.892Z,28.13
2023-08-24T16:40:52.496Z,28.05
2023-08-24T16:43:20.398Z,28.00
2023-08-24T16:45:49.952Z,27.80
2023-08-24T16:48:17.921Z,27.73
2023-08-24T16:50:45.954Z,27.70
2023-08-24T16:53:14.117Z,27.68
2023-08-24T16:55:42.096Z,27.65
2023-08-24T16:58:10.084Z,27.70
2023-08-24T17:00:38.110Z,27.65
2023-08-24T17:03:07.785Z,27.49
2023-08-24T17:05:35.937Z,27.50
2023-08-24T17:08:06.667Z,27.63
2023-08-24T17:10:34.913Z,27.57
2023-08-24T17:13:03.587Z,27.68
2023-08-24T17:15:31.954Z,27.50
2023-08-24T17:18:00.573Z,27.48
2023-08-24T17:20:30.502Z,27.55
2023-08-24T17:22:58.493Z,27.57
2023-08-24T17:25:26.459Z,27.62
2023-08-24T17:27:54.501Z,27.69
2023-08-24T17:30:23.245Z,27.74
2023-08-24T17:32:51.215Z,27.79
2023-08-24T17:35:19.363Z,27.82
2023-08-24T17:37:48.735Z,27.80
2023-08-24T17:40:16.756Z,27.74
2023-08-24T17:42:44.744Z,27.73
2023-08-24T17:45:13.470Z,27.66
2023-08-24T17:47:41.556Z,27.60
2023-08-24T17:50:10.137Z,27.52
2023-08-24T17:52:38.182Z,27.43
2023-08-24T17:55:10.074Z,27.35
2023-08-24T17:57:38.322Z,27.19
2023-08-24T18:00:07.339Z,26.96
2023-08-24T18:02:35.335Z,26.85
2023-08-24T18:05:04.847Z,26.71
2023-08-24T18:07:32.788Z,26.71
2023-08-24T18:10:00.815Z,26.57
2023-08-24T18:12:30.184Z,26.55
2023-08-24T18:14:58.053Z,26.53
2023-08-24T18:17:26.741Z,26.51
2023-08-24T18:19:54.741Z,26.50
2023-08-24T18:22:22.634Z,26.50
2023-08-24T18:24:50.559Z,26.53
2023-08-24T18:27:18.547Z,26.48
2023-08-24T18:29:47.864Z,26.44
2023-08-24T18:32:15.791Z,26.44
2023-08-24T18:34:43.734Z,26.43
2023-08-24T18:37:11.869Z,26.46
2023-08-24T18:39:40.271Z,26.40
2023-08-24T18:42:08.259Z,26.43
2023-08-24T18:44:36.161Z,26.42
2023-08-24T18:47:07.493Z,26.33
2023-08-24T18:49:35.850Z,26.23
2023-08-24T18:52:03.736Z,26.14
2023-08-24T18:54:32.079Z,26.04
2023-08-24T18:57:00.969Z,26.00
2023-08-24T18:59:29.076Z,25.94
2023-08-24T19:01:56.961Z,25.94
2023-08-24T19:04:26.320Z,25.98
2023-08-24T19:06:54.202Z,25.91
2023-08-24T19:09:22.482Z,25.81
2023-08-24T19:11:50.510Z,25.75
2023-08-24T19:14:18.657Z,25.56
2023-08-24T19:16:46.562Z,25.39
2023-08-24T19:19:15.064Z,25.49
2023-08-24T19:21:44.324Z,25.39
2023-08-24T19:24:12.378Z,25.49
2023-08-24T19:26:40.316Z,25.46
2023-08-24T19:29:08.763Z,25.57
2023-08-24T19:31:36.868Z,25.59
2023-08-24T19:34:04.972Z,25.55
2023-08-24T19:36:32.950Z,25.48
2023-08-24T19:39:02.308Z,25.45
2023-08-24T19:41:30.547Z,25.51
2023-08-24T19:43:58.418Z,25.51
2023-08-24T19:46:26.534Z,25.56
2023-08-24T19:48:54.747Z,25.62
2023-08-24T19:51:23.056Z,25.55
2023-08-24T19:53:50.972Z,25.49
2023-08-24T19:56:20.557Z,25.55
2023-08-24T19:58:48.473Z,25.50
2023-08-24T20:01:16.848Z,25.53
2023-08-24T20:03:44.865Z,25.45
2023-08-24T20:06:21.923Z,25.36
2023-08-24T20:08:50.291Z,25.44
2023-08-24T20:11:21.190Z,25.29
2023-08-24T20:13:50.008Z,25.14
2023-08-24T20:16:18.124Z,25.14
2023-08-24T20:18:46.056Z,25.10
2023-08-24T20:21:14.044Z,25.13
2023-08-24T20:23:42.353Z,25.14
2023-08-24T20:26:11.632Z,25.00
2023-08-24T20:28:41.844Z,24.99
2023-08-24T20:31:10.062Z,24.99
2023-08-24T20:33:38.408Z,24.95
2023-08-24T20:36:06.834Z,25.00
2023-08-24T20:38:34.728Z,24.81
2023-08-24T20:41:04.350Z,24.78
2023-08-24T20:43:32.538Z,24.76
2023-08-24T20:46:02.116Z,24.78
2023-08-24T20:48:30.060Z,24.81
2023-08-24T20:50:58.921Z,24.83
2023-08-24T20:53:26.905Z,24.81
2023-08-24T20:55:54.891Z,24.78
2023-08-24T20:58:22.860Z,24.79
2023-08-24T21:00:51.102Z,24.74
2023-08-24T21:03:20.567Z,24.71
2023-08-24T21:05:48.552Z,24.61
2023-08-24T21:08:16.473Z,24.47
2023-08-24T21:10:44.434Z,24.22
2023-08-24T21:13:12.373Z,24.09
2023-08-24T21:15:40.600Z,24.04
2023-08-24T21:18:09.495Z,24.06
2023-08-24T21:20:38.788Z,23.93
2023-08-24T21:23:07.051Z,23.91
2023-08-24T21:25:34.956Z,23.96
2023-08-24T21:28:02.887Z,23.80
2023-08-24T21:30:31.014Z,23.77
2023-08-24T21:32:58.946Z,23.69
2023-08-24T21:35:26.882Z,23.54
2023-08-24T21:37:56.472Z,23.47
2023-08-24T21:40:25.041Z,23.49
2023-08-24T21:42:53.086Z,23.42
2023-08-24T21:45:21.044Z,23.32
2023-08-24T21:47:49.051Z,23.24
2023-08-24T21:50:17.167Z,23.25
2023-08-24T21:52:45.070Z,23.26
2023-08-24T21:55:14.434Z,23.29
2023-08-24T21:57:42.337Z,23.27
2023-08-24T22:00:14.102Z,23.14
2023-08-24T22:02:42.504Z,23.18
2023-08-24T22:05:11.410Z,22.98
2023-08-24T22:07:39.316Z,23.01
2023-08-24T22:10:08.860Z,23.00
2023-08-24T22:12:38.350Z,23.00
2023-08-24T22:15:07.233Z,22.94
2023-08-24T22:17:35.376Z,22.92
2023-08-24T22:20:04.388Z,22.78
2023-08-24T22:22:32.379Z,22.63
2023-08-24T22:25:00.338Z,22.51
2023-08-24T22:27:28.273Z,22.46
2023-08-24T22:29:57.567Z,22.54
2023-08-24T22:32:25.580Z,22.59
2023-08-24T22:34:53.792Z,22.53
2023-08-24T22:37:21.791Z,22.58
2023-08-24T22:39:50.270Z,22.46
2023-08-24T22:42:18.179Z,22.41
2023-08-24T22:44:46.107Z,22.42
2023-08-24T22:47:15.358Z,22.41
2023-08-24T22:49:43.301Z,22.30
2023-08-24T22:52:11.146Z,22.25
2023-08-24T22:54:39.066Z,22.39
2023-08-24T22:57:07.507Z,22.34
2023-08-24T22:59:35.448Z,22.37
2023-08-24T23:02:03.813Z,22.31
2023-08-24T23:04:33.098Z,22.30
2023-08-24T23:07:08.475Z,22.20
2023-08-24T23:09:38.657Z,22.23
2023-08-24T23:12:07.202Z,22.27
2023-08-24T23:14:36.379Z,22.29
2023-08-24T23:17:05.776Z,22.21
2023-08-24T23:19:37.241Z,22.18
2023-08-24T23:22:05.623Z,22.19
2023-08-24T23:27:04.763Z,22.06
2023-08-24T23:29:32.678Z,22.12
2023-08-24T23:32:00.560Z,22.06
2023-08-24T23:34:29.053Z,22.15
2023-08-24T23:36:58.564Z,22.17
2023-08-24T23:39:26.911Z,22.11
2023-08-24T23:41:54.779Z,22.06
2023-08-24T23:44:23.829Z,21.96
2023-08-24T23:46:52.055Z,21.90
2023-08-24T23:49:20.054Z,21.86
2023-08-24T23:51:48.247Z,21.86
2023-08-24T23:54:17.577Z,21.86
2023-08-24T23:56:45.536Z,21.83
2023-08-24T23:59:13.439Z,21.85
